Time;durP1;ratioP1;P1;durP2;ratioP2;P2;SDS_P1;SDS_P2;PMS_P1;PMS_P2;Temp;Humidity;BMP_temperature;BMP_pressure;BME280_temperature;BME280_humidity;BME280_pressure;Samples;Min_cycle;Max_cycle;Signal;HPM_P1;HPM_P2
2022/11/19 00:00:53;;;;;;;5.03;1.33;;;;;;;;;;5008513;28;20047;-65
2022/11/19 00:03:21;;;;;;;7.28;1.50;;;;;;;;;;5008807;28;20116;-64
2022/11/19 00:05:49;;;;;;;4.30;1.30;;;;;;;;;;5009383;28;20033;-66
2022/11/19 00:08:17;;;;;;;7.25;1.63;;;;;;;;;;5010492;28;20117;-65
2022/11/19 00:10:44;;;;;;;6.18;1.70;;;;;;;;;;5008748;28;20879;-64
2022/11/19 00:13:12;;;;;;;15.30;2.17;;;;;;;;;;5008446;28;20103;-64
2022/11/19 00:15:38;;;;;;;6.90;1.75;;;;;;;;;;5008106;28;20046;-64
2022/11/19 00:18:06;;;;;;;8.40;1.52;;;;;;;;;;5008111;28;20145;-64
2022/11/19 00:20:34;;;;;;;7.90;1.80;;;;;;;;;;5008340;28;20040;-63
2022/11/19 00:23:01;;;;;;;6.05;1.58;;;;;;;;;;5011837;28;20037;-64
2022/11/19 00:25:28;;;;;;;3.95;1.30;;;;;;;;;;5009358;28;20037;-63
2022/11/19 00:27:58;;;;;;;9.75;1.60;;;;;;;;;;5009415;28;20486;-64
2022/11/19 00:30:25;;;;;;;7.93;1.27;;;;;;;;;;5008124;28;20387;-64
2022/11/19 00:32:52;;;;;;;5.25;1.67;;;;;;;;;;5006755;28;20053;-64
2022/11/19 00:35:18;;;;;;;7.10;1.83;;;;;;;;;;5007309;28;20900;-64
2022/11/19 00:37:45;;;;;;;3.70;1.30;;;;;;;;;;5007501;28;20076;-64
2022/11/19 00:40:12;;;;;;;10.75;2.03;;;;;;;;;;5007088;28;20407;-64
2022/11/19 00:43:45;;;;;;;6.00;1.48;;;;;;;;;;5008686;28;20053;-64
2022/11/19 00:45:25;;;;;;;13.23;1.95;;;;;;;;;;5008492;28;20045;-63
2022/11/19 00:47:52;;;;;;;7.72;1.65;;;;;;;;;;5006481;28;20060;-64
2022/11/19 00:50:19;;;;;;;12.02;1.90;;;;;;;;;;5010841;28;20037;-64
2022/11/19 00:52:45;;;;;;;8.10;1.33;;;;;;;;;;5009647;28;20134;-64
2022/11/19 00:55:12;;;;;;;5.88;1.70;;;;;;;;;;5007332;28;20109;-64
2022/11/19 00:57:38;;;;;;;12.00;1.75;;;;;;;;;;5006643;28;20034;-64
2022/11/19 01:00:05;;;;;;;7.90;1.60;;;;;;;;;;5007787;28;20050;-62
2022/11/19 01:02:32;;;;;;;14.88;2.40;;;;;;;;;;5008285;28;20037;-65
2022/11/19 01:04:58;;;;;;;19.40;3.67;;;;;;;;;;5009364;28;20418;-63
2022/11/19 01:07:25;;;;;;;15.60;1.60;;;;;;;;;;5008023;28;20175;-63
2022/11/19 01:09:52;;;;;;;9.73;1.73;;;;;;;;;;5007691;28;20037;-67
2022/11/19 01:12:18;;;;;;;12.60;2.47;;;;;;;;;;5006836;28;20431;-64
2022/11/19 01:14:45;;;;;;;11.07;1.98;;;;;;;;;;5006746;28;20081;-65
2022/11/19 01:17:11;;;;;;;9.80;2.13;;;;;;;;;;5007147;28;20040;-65
2022/11/19 01:19:38;;;;;;;12.23;2.30;;;;;;;;;;5006550;28;20051;-65
2022/11/19 01:22:05;;;;;;;7.28;2.25;;;;;;;;;;5007702;28;20048;-63
2022/11/19 01:24:31;;;;;;;7.35;2.60;;;;;;;;;;5006482;28;20045;-65
2022/11/19 01:26:58;;;;;;;17.13;2.28;;;;;;;;;;5003124;28;20056;-66
2022/11/19 01:29:25;;;;;;;9.75;1.90;;;;;;;;;;5005617;28;20178;-64
2022/11/19 01:31:51;;;;;;;6.93;2.08;;;;;;;;;;5021777;28;20482;-65
2022/11/19 01:34:18;;;;;;;14.40;2.45;;;;;;;;;;5008416;28;20076;-65
2022/11/19 01:36:44;;;;;;;22.77;2.25;;;;;;;;;;5006347;28;20038;-65
2022/11/19 01:39:11;;;;;;;17.17;2.75;;;;;;;;;;5007172;28;20638;-65
2022/11/19 01:41:38;;;;;;;6.60;1.60;;;;;;;;;;5009313;28;20038;-67
2022/11/19 01:44:05;;;;;;;10.32;2.55;;;;;;;;;;5022701;28;20040;-65
2022/11/19 01:46:34;;;;;;;17.33;2.72;;;;;;;;;;5008486;28;20026;-64
2022/11/19 01:49:16;;;;;;;13.93;2.38;;;;;;;;;;5007411;28;20085;-65
2022/11/19 01:51:49;;;;;;;11.13;1.90;;;;;;;;;;5006448;28;20572;-64
2022/11/19 01:54:19;;;;;;;8.63;2.25;;;;;;;;;;5008064;28;20045;-64
2022/11/19 01:56:46;;;;;;;9.43;2.20;;;;;;;;;;5007814;28;20049;-63
2022/11/19 01:59:15;;;;;;;8.48;2.10;;;;;;;;;;5009574;28;20045;-64
2022/11/19 02:01:43;;;;;;;11.80;2.45;;;;;;;;;;5006022;28;20052;-63
2022/11/19 02:04:10;;;;;;;7.57;1.80;;;;;;;;;;5007328;28;20046;-65
2022/11/19 02:06:37;;;;;;;24.45;2.80;;;;;;;;;;4994685;28;20042;-65
2022/11/19 02:09:05;;;;;;;10.57;2.20;;;;;;;;;;5010775;28;20155;-65
2022/11/19 02:11:31;;;;;;;15.35;3.17;;;;;;;;;;4996582;28;20033;-66
2022/11/19 02:14:16;;;;;;;11.98;2.75;;;;;;;;;;5012567;28;20224;-65
2022/11/19 02:16:43;;;;;;;7.05;2.60;;;;;;;;;;5004214;28;20064;-64
2022/11/19 02:19:17;;;;;;;12.98;3.47;;;;;;;;;;5007291;28;20034;-66
2022/11/19 02:22:04;;;;;;;12.45;2.20;;;;;;;;;;5011817;28;20565;-64
2022/11/19 02:24:40;;;;;;;7.30;2.90;;;;;;;;;;5000628;28;20057;-63
2022/11/19 02:27:06;;;;;;;12.52;3.33;;;;;;;;;;5010597;28;20188;-63
2022/11/19 02:29:51;;;;;;;16.25;2.55;;;;;;;;;;4995828;28;21066;-65
2022/11/19 02:32:22;;;;;;;10.77;2.35;;;;;;;;;;4996349;28;20386;-66
2022/11/19 02:34:58;;;;;;;13.57;2.45;;;;;;;;;;4996838;28;20049;-63
2022/11/19 02:37:26;;;;;;;4.40;1.23;;;;;;;;;;4995859;28;20412;-66
2022/11/19 02:40:13;;;;;;;7.65;1.63;;;;;;;;;;4993833;28;20030;-65
2022/11/19 02:42:58;;;;;;;13.40;1.67;;;;;;;;;;4993563;28;20046;-65
2022/11/19 02:45:37;;;;;;;20.02;2.45;;;;;;;;;;4994055;28;20199;-66
2022/11/19 02:48:10;;;;;;;4.72;1.58;;;;;;;;;;4998245;28;20068;-65
2022/11/19 02:50:40;;;;;;;4.47;1.83;;;;;;;;;;4995044;28;20485;-61
2022/11/19 02:53:06;;;;;;;18.38;2.72;;;;;;;;;;4994686;28;20042;-59
2022/11/19 02:55:35;;;;;;;12.40;2.17;;;;;;;;;;4995344;28;20034;-57
2022/11/19 02:58:08;;;;;;;6.90;1.88;;;;;;;;;;4994382;28;20057;-60
2022/11/19 03:06:22;;;;;;;15.20;1.85;;;;;;;;;;4995330;28;20673;-61
2022/11/19 03:08:48;;;;;;;5.65;1.95;;;;;;;;;;4992983;28;20149;-61
2022/11/19 03:11:25;;;;;;;8.80;1.67;;;;;;;;;;4995566;28;20037;-59
2022/11/19 03:16:56;;;;;;;7.30;1.80;;;;;;;;;;4994095;28;20092;-59
2022/11/19 03:19:35;;;;;;;6.63;1.80;;;;;;;;;;4994725;28;20069;-59
2022/11/19 03:22:08;;;;;;;14.20;2.10;;;;;;;;;;4996221;28;20049;-58
2022/11/19 03:25:04;;;;;;;7.63;1.83;;;;;;;;;;4994754;28;20256;-62
2022/11/19 03:27:52;;;;;;;4.93;1.35;;;;;;;;;;4979816;28;20085;-61
2022/11/19 03:30:19;;;;;;;5.57;2.08;;;;;;;;;;5009788;28;20636;-59
2022/11/19 03:32:51;;;;;;;7.93;1.52;;;;;;;;;;5010145;28;20518;-59
2022/11/19 03:35:24;;;;;;;9.57;2.22;;;;;;;;;;5010781;28;20732;-60
2022/11/19 03:37:52;;;;;;;18.13;2.58;;;;;;;;;;5008664;28;20053;-57
2022/11/19 03:40:20;;;;;;;8.82;1.70;;;;;;;;;;5009525;28;20038;-60
2022/11/19 03:42:49;;;;;;;15.45;2.05;;;;;;;;;;5009090;28;20124;-58
2022/11/19 03:45:17;;;;;;;6.72;2.20;;;;;;;;;;5010627;28;20049;-61
2022/11/19 03:47:46;;;;;;;8.60;1.98;;;;;;;;;;5008839;28;20049;-63
2022/11/19 03:50:25;;;;;;;7.78;2.28;;;;;;;;;;5008313;28;21333;-61
2022/11/19 03:52:51;;;;;;;13.85;2.17;;;;;;;;;;5008512;28;20045;-63
2022/11/19 03:55:18;;;;;;;11.60;1.63;;;;;;;;;;5008626;28;20438;-61
2022/11/19 03:57:45;;;;;;;11.57;2.60;;;;;;;;;;5007528;28;20486;-62
2022/11/19 04:00:12;;;;;;;13.57;2.33;;;;;;;;;;5009418;28;20072;-62
2022/11/19 04:02:38;;;;;;;11.23;2.65;;;;;;;;;;5008799;28;20041;-61
2022/11/19 04:05:05;;;;;;;10.18;2.42;;;;;;;;;;5011441;28;20529;-61
2022/11/19 04:07:32;;;;;;;9.05;2.45;;;;;;;;;;5009248;28;20342;-61
2022/11/19 04:09:58;;;;;;;9.20;2.65;;;;;;;;;;5008942;28;20893;-61
2022/11/19 04:12:25;;;;;;;11.63;2.05;;;;;;;;;;5008558;28;20042;-61
2022/11/19 04:14:52;;;;;;;6.38;1.88;;;;;;;;;;5008997;28;20037;-62
2022/11/19 04:17:19;;;;;;;8.85;1.45;;;;;;;;;;5009325;28;20509;-62
2022/11/19 04:19:46;;;;;;;2.80;1.13;;;;;;;;;;5010350;28;20498;-60
2022/11/19 04:22:12;;;;;;;11.18;1.70;;;;;;;;;;5009577;28;20060;-61
2022/11/19 04:24:39;;;;;;;10.95;1.58;;;;;;;;;;5009977;28;20756;-61
2022/11/19 04:27:06;;;;;;;2.08;0.85;;;;;;;;;;5011111;28;20262;-64
2022/11/19 04:29:32;;;;;;;4.53;1.40;;;;;;;;;;4993549;28;20732;-61
2022/11/19 04:31:59;;;;;;;3.42;1.08;;;;;;;;;;4996988;28;20030;-60
2022/11/19 04:34:25;;;;;;;4.88;1.50;;;;;;;;;;4995615;28;20828;-63
2022/11/19 04:36:52;;;;;;;8.20;1.30;;;;;;;;;;4995276;28;20157;-62
2022/11/19 04:39:19;;;;;;;3.85;1.20;;;;;;;;;;4994054;28;20050;-62
2022/11/19 04:41:45;;;;;;;10.70;1.15;;;;;;;;;;4998824;28;20080;-62
2022/11/19 04:44:12;;;;;;;4.85;1.40;;;;;;;;;;4995995;28;20533;-61
2022/11/19 04:46:38;;;;;;;4.70;1.65;;;;;;;;;;4994973;28;20081;-61
2022/11/19 04:49:05;;;;;;;6.80;2.33;;;;;;;;;;4994462;28;20057;-59
2022/11/19 04:51:32;;;;;;;7.07;2.05;;;;;;;;;;4994108;28;20124;-63
2022/11/19 04:53:58;;;;;;;7.07;1.30;;;;;;;;;;4995928;28;20053;-62
2022/11/19 04:56:25;;;;;;;8.27;2.20;;;;;;;;;;4992908;28;20061;-61
2022/11/19 04:58:51;;;;;;;4.57;1.40;;;;;;;;;;4995461;28;20063;-60
2022/11/19 05:01:19;;;;;;;4.05;1.65;;;;;;;;;;4992382;28;20048;-62
2022/11/19 05:03:46;;;;;;;3.70;1.52;;;;;;;;;;4992693;28;20045;-61
2022/11/19 05:06:13;;;;;;;5.50;2.17;;;;;;;;;;4993500;28;20046;-63
2022/11/19 05:08:40;;;;;;;9.57;1.30;;;;;;;;;;4992279;28;20146;-61
2022/11/19 05:11:06;;;;;;;2.38;0.93;;;;;;;;;;4994907;28;20046;-60
2022/11/19 05:13:33;;;;;;;5.45;1.35;;;;;;;;;;4994098;28;20547;-61
2022/11/19 05:15:59;;;;;;;2.83;1.00;;;;;;;;;;4991435;28;20565;-60
2022/11/19 05:18:26;;;;;;;2.75;1.30;;;;;;;;;;4991105;28;20038;-60
2022/11/19 05:20:53;;;;;;;8.95;1.45;;;;;;;;;;4992762;28;21795;-60
2022/11/19 05:23:19;;;;;;;5.43;1.30;;;;;;;;;;4992494;28;20046;-58
2022/11/19 05:25:46;;;;;;;3.05;0.88;;;;;;;;;;4994184;28;20034;-60
2022/11/19 05:28:13;;;;;;;7.68;1.73;;;;;;;;;;4986314;28;20100;-63
2022/11/19 05:30:40;;;;;;;9.00;1.23;;;;;;;;;;4988204;28;20046;-61
2022/11/19 05:33:06;;;;;;;2.08;0.82;;;;;;;;;;4989356;28;20034;-59
2022/11/19 05:35:33;;;;;;;6.40;1.42;;;;;;;;;;4986808;28;20503;-60
2022/11/19 05:38:00;;;;;;;3.10;1.23;;;;;;;;;;4987052;28;20124;-60
2022/11/19 05:40:26;;;;;;;5.38;2.00;;;;;;;;;;4988272;28;20038;-59
2022/11/19 05:42:53;;;;;;;15.95;3.10;;;;;;;;;;4992426;28;20044;-58
2022/11/19 05:45:20;;;;;;;14.07;2.40;;;;;;;;;;4990848;28;20158;-60
2022/11/19 05:47:46;;;;;;;8.13;1.85;;;;;;;;;;4995187;28;20996;-61
2022/11/19 05:50:13;;;;;;;10.23;1.80;;;;;;;;;;4992714;28;20053;-60
2022/11/19 05:52:40;;;;;;;7.43;1.70;;;;;;;;;;4993084;28;20410;-59
2022/11/19 05:55:06;;;;;;;16.23;2.20;;;;;;;;;;4992630;28;20057;-60
2022/11/19 05:57:33;;;;;;;13.35;2.78;;;;;;;;;;4995557;28;20030;-60
2022/11/19 06:00:00;;;;;;;8.63;2.33;;;;;;;;;;4991632;28;20133;-61
2022/11/19 06:02:27;;;;;;;5.28;2.13;;;;;;;;;;4992859;28;20033;-60
2022/11/19 06:04:54;;;;;;;9.82;2.03;;;;;;;;;;4993151;28;20116;-60
2022/11/19 06:07:20;;;;;;;11.07;2.33;;;;;;;;;;4993810;28;20069;-62
2022/11/19 06:09:47;;;;;;;9.30;2.65;;;;;;;;;;4993014;28;20049;-60
2022/11/19 06:12:14;;;;;;;6.22;2.38;;;;;;;;;;4992868;28;20054;-60
2022/11/19 06:14:41;;;;;;;19.17;2.33;;;;;;;;;;4992254;28;20038;-59
2022/11/19 06:17:07;;;;;;;16.65;1.75;;;;;;;;;;4991013;28;20489;-62
2022/11/19 06:19:34;;;;;;;10.05;2.33;;;;;;;;;;4987075;28;20567;-62
2022/11/19 06:22:01;;;;;;;17.38;2.75;;;;;;;;;;4989816;28;20045;-61
2022/11/19 06:24:28;;;;;;;15.77;2.47;;;;;;;;;;4990505;28;20038;-62
2022/11/19 06:26:55;;;;;;;6.40;2.50;;;;;;;;;;4992492;28;20783;-62
2022/11/19 06:29:22;;;;;;;13.07;2.65;;;;;;;;;;5008586;28;20120;-62
2022/11/19 06:31:48;;;;;;;6.60;2.30;;;;;;;;;;5013669;28;20052;-60
2022/11/19 06:34:15;;;;;;;6.65;1.80;;;;;;;;;;5017384;28;20053;-60
2022/11/19 06:36:42;;;;;;;12.95;2.17;;;;;;;;;;5015824;28;20049;-61
2022/11/19 06:39:08;;;;;;;3.05;1.50;;;;;;;;;;5013617;28;20041;-61
2022/11/19 06:41:35;;;;;;;6.28;2.67;;;;;;;;;;5009516;28;20056;-56
2022/11/19 06:44:02;;;;;;;5.53;2.75;;;;;;;;;;5009525;28;20169;-60
2022/11/19 06:46:29;;;;;;;4.20;1.75;;;;;;;;;;5008253;28;20044;-60
2022/11/19 06:48:55;;;;;;;9.07;2.47;;;;;;;;;;5010879;28;20144;-57
2022/11/19 06:51:22;;;;;;;5.00;2.10;;;;;;;;;;5011828;28;20175;-61
2022/11/19 06:53:48;;;;;;;13.68;2.20;;;;;;;;;;5012335;28;20089;-62
2022/11/19 06:56:15;;;;;;;5.18;1.85;;;;;;;;;;5011279;28;20038;-61
2022/11/19 06:58:42;;;;;;;15.88;4.78;;;;;;;;;;5008657;28;20077;-60
2022/11/19 07:01:08;;;;;;;8.82;3.10;;;;;;;;;;5009014;28;20120;-63
2022/11/19 07:03:35;;;;;;;14.85;3.42;;;;;;;;;;5008623;28;20037;-60
2022/11/19 07:06:03;;;;;;;7.18;3.35;;;;;;;;;;5009603;28;20042;-59
2022/11/19 07:08:33;;;;;;;4.97;2.45;;;;;;;;;;5007961;28;20188;-63
2022/11/19 07:10:59;;;;;;;11.23;3.00;;;;;;;;;;5010381;28;20049;-61
2022/11/19 07:13:56;;;;;;;10.32;3.15;;;;;;;;;;5010729;28;20037;-59
2022/11/19 07:16:15;;;;;;;5.40;2.22;;;;;;;;;;5010975;28;20442;-62
2022/11/19 07:18:42;;;;;;;6.65;2.42;;;;;;;;;;5012077;28;20041;-57
2022/11/19 07:21:08;;;;;;;5.50;1.88;;;;;;;;;;5010927;28;20041;-59
2022/11/19 07:23:35;;;;;;;5.18;2.58;;;;;;;;;;5008357;28;20124;-62
2022/11/19 07:26:02;;;;;;;2.88;1.38;;;;;;;;;;5009652;28;20045;-60
2022/11/19 07:28:28;;;;;;;7.53;2.85;;;;;;;;;;5008633;28;20056;-60
2022/11/19 07:30:55;;;;;;;5.05;2.33;;;;;;;;;;5011237;28;20707;-62
2022/11/19 07:33:22;;;;;;;5.25;2.47;;;;;;;;;;5009699;28;20046;-62
2022/11/19 07:35:48;;;;;;;8.32;2.00;;;;;;;;;;5005589;28;20579;-59
2022/11/19 07:38:15;;;;;;;5.22;1.70;;;;;;;;;;5020529;28;20417;-63
2022/11/19 07:40:41;;;;;;;3.63;1.85;;;;;;;;;;5008336;28;20118;-59
2022/11/19 07:43:08;;;;;;;8.93;2.88;;;;;;;;;;5009890;28;20478;-59
2022/11/19 07:45:37;;;;;;;8.20;2.20;;;;;;;;;;5008628;28;20129;-60
2022/11/19 07:48:04;;;;;;;4.53;1.88;;;;;;;;;;5009195;28;20057;-60
2022/11/19 07:50:30;;;;;;;4.32;1.90;;;;;;;;;;5010168;28;20118;-60
2022/11/19 07:53:00;;;;;;;10.55;3.15;;;;;;;;;;5011463;28;20092;-59
2022/11/19 07:55:26;;;;;;;6.63;2.42;;;;;;;;;;5010228;28;20056;-61
2022/11/19 07:57:53;;;;;;;5.25;2.45;;;;;;;;;;5008897;28;20125;-63
2022/11/19 08:00:20;;;;;;;7.65;2.20;;;;;;;;;;4997265;28;20060;-61
2022/11/19 08:02:48;;;;;;;9.45;1.92;;;;;;;;;;5009693;28;20045;-60
2022/11/19 08:05:15;;;;;;;11.45;1.95;;;;;;;;;;5012439;28;20494;-64
2022/11/19 08:07:41;;;;;;;4.95;2.17;;;;;;;;;;5011878;28;20052;-64
2022/11/19 08:10:09;;;;;;;3.63;1.88;;;;;;;;;;5014629;28;20052;-61
2022/11/19 08:12:36;;;;;;;9.07;1.85;;;;;;;;;;5013647;28;20050;-60
2022/11/19 08:15:03;;;;;;;4.18;2.00;;;;;;;;;;5014067;28;20045;-61
2022/11/19 08:20:16;;;;;;;3.67;1.67;;;;;;;;;;5008005;28;20053;-61
2022/11/19 08:22:43;;;;;;;10.80;2.78;;;;;;;;;;5007296;28;20092;-61
2022/11/19 08:25:09;;;;;;;6.05;2.42;;;;;;;;;;5008973;28;20042;-60
2022/11/19 08:27:36;;;;;;;6.50;2.00;;;;;;;;;;5007716;28;20057;-63
2022/11/19 08:30:03;;;;;;;9.63;2.60;;;;;;;;;;5024389;28;20060;-61
2022/11/19 08:32:30;;;;;;;3.67;1.73;;;;;;;;;;5008884;28;20045;-60
2022/11/19 08:34:56;;;;;;;3.55;1.77;;;;;;;;;;5009818;28;20062;-60
2022/11/19 08:37:23;;;;;;;5.53;1.73;;;;;;;;;;5012439;28;20033;-60
2022/11/19 08:39:49;;;;;;;11.30;5.20;;;;;;;;;;5007470;28;20631;-59
2022/11/19 08:45:01;;;;;;;4.13;2.28;;;;;;;;;;5008265;28;20088;-59
2022/11/19 08:47:28;;;;;;;5.47;2.40;;;;;;;;;;5008188;28;20054;-61
2022/11/19 08:49:54;;;;;;;4.22;1.92;;;;;;;;;;5010107;28;20128;-62
2022/11/19 08:52:21;;;;;;;6.80;1.92;;;;;;;;;;5009101;28;20034;-60
2022/11/19 08:54:47;;;;;;;3.95;2.33;;;;;;;;;;5009332;28;20456;-61
2022/11/19 08:57:14;;;;;;;4.35;1.83;;;;;;;;;;5007286;28;20041;-64
2022/11/19 08:59:41;;;;;;;2.95;1.48;;;;;;;;;;5003706;28;20034;-62
2022/11/19 09:02:10;;;;;;;11.05;2.50;;;;;;;;;;5008506;28;20406;-58
2022/11/19 09:04:36;;;;;;;4.68;2.08;;;;;;;;;;5011688;28;20050;-61
2022/11/19 09:07:03;;;;;;;7.40;2.78;;;;;;;;;;4996459;28;20037;-60
2022/11/19 09:09:29;;;;;;;5.53;2.13;;;;;;;;;;5007201;28;20088;-61
2022/11/19 09:11:56;;;;;;;6.13;2.28;;;;;;;;;;5012313;28;20052;-60
2022/11/19 09:14:23;;;;;;;3.88;1.92;;;;;;;;;;5006539;28;20080;-61
2022/11/19 09:16:49;;;;;;;6.13;2.45;;;;;;;;;;5007598;28;20057;-60
2022/11/19 09:19:16;;;;;;;11.35;2.08;;;;;;;;;;5006971;28;20639;-61
2022/11/19 09:21:42;;;;;;;6.85;3.90;;;;;;;;;;5006935;28;20033;-61
2022/11/19 09:24:09;;;;;;;7.40;2.55;;;;;;;;;;5006917;28;20378;-61
2022/11/19 09:26:36;;;;;;;4.18;1.92;;;;;;;;;;5007770;28;20034;-60
2022/11/19 09:29:02;;;;;;;2.85;1.42;;;;;;;;;;5009943;28;21943;-63
2022/11/19 09:31:29;;;;;;;4.97;1.95;;;;;;;;;;5009224;28;20085;-61
2022/11/19 09:33:55;;;;;;;4.63;2.05;;;;;;;;;;5007978;28;20042;-61
2022/11/19 09:36:22;;;;;;;6.10;1.73;;;;;;;;;;5007045;28;20040;-60
2022/11/19 09:38:49;;;;;;;35.75;2.58;;;;;;;;;;5006266;28;20503;-60
2022/11/19 09:41:15;;;;;;;3.05;1.65;;;;;;;;;;5007415;28;20038;-61
2022/11/19 09:43:48;;;;;;;3.60;1.73;;;;;;;;;;5008229;28;20073;-60
2022/11/19 09:46:18;;;;;;;3.15;1.40;;;;;;;;;;5007253;28;20044;-62
2022/11/19 09:48:44;;;;;;;2.58;1.17;;;;;;;;;;5006818;28;20100;-62
2022/11/19 09:51:13;;;;;;;3.90;1.80;;;;;;;;;;5008888;28;20376;-63
2022/11/19 09:53:49;;;;;;;5.47;2.22;;;;;;;;;;5010677;28;20068;-61
2022/11/19 09:56:25;;;;;;;5.85;1.58;;;;;;;;;;5007920;28;20134;-61
2022/11/19 09:58:52;;;;;;;3.00;1.58;;;;;;;;;;5014546;28;20081;-61
2022/11/19 10:01:19;;;;;;;2.63;1.30;;;;;;;;;;5007044;28;20049;-62
2022/11/19 10:03:50;;;;;;;13.18;2.15;;;;;;;;;;5006865;28;20104;-62
2022/11/19 10:06:23;;;;;;;5.35;1.45;;;;;;;;;;5007825;28;20053;-60
2022/11/19 10:08:58;;;;;;;5.45;1.88;;;;;;;;;;5010962;28;20059;-62
2022/11/19 10:11:31;;;;;;;3.97;1.55;;;;;;;;;;5008248;28;20053;-61
2022/11/19 10:14:13;;;;;;;2.67;1.30;;;;;;;;;;5008100;28;20070;-60
2022/11/19 10:16:55;;;;;;;2.78;1.17;;;;;;;;;;5006523;28;20976;-62
2022/11/19 10:19:41;;;;;;;4.03;1.45;;;;;;;;;;5004791;28;20460;-61
2022/11/19 10:22:17;;;;;;;6.05;1.83;;;;;;;;;;5007033;28;20075;-62
2022/11/19 10:24:49;;;;;;;3.90;1.48;;;;;;;;;;5005141;28;20069;-62
2022/11/19 10:27:23;;;;;;;3.10;1.10;;;;;;;;;;4997246;28;20267;-61
2022/11/19 10:29:49;;;;;;;;;;;;;;;;;;5011705;28;20069;-60
2022/11/19 10:32:19;;;;;;;2.15;1.10;;;;;;;;;;5012250;28;19917;-64
2022/11/19 10:34:46;;;;;;;9.02;1.15;;;;;;;;;;5009580;28;20065;-60
2022/11/19 10:37:17;;;;;;;2.50;1.25;;;;;;;;;;5010966;28;20048;-62
2022/11/19 10:39:49;;;;;;;3.88;1.15;;;;;;;;;;5008220;28;20049;-61
2022/11/19 10:42:27;;;;;;;5.60;1.45;;;;;;;;;;5005472;28;20056;-61
2022/11/19 10:45:06;;;;;;;3.08;1.10;;;;;;;;;;5008335;28;20034;-61
2022/11/19 10:47:49;;;;;;;5.53;1.52;;;;;;;;;;4997514;28;20533;-60
2022/11/19 10:50:23;;;;;;;4.20;1.35;;;;;;;;;;5011284;28;20072;-61
2022/11/19 10:52:54;;;;;;;3.05;1.50;;;;;;;;;;5008508;28;20903;-60
2022/11/19 10:55:26;;;;;;;2.60;1.17;;;;;;;;;;5008830;28;20048;-61
2022/11/19 10:58:05;;;;;;;2.40;1.15;;;;;;;;;;5006629;28;20049;-63
2022/11/19 11:00:32;;;;;;;3.58;1.13;;;;;;;;;;4994874;28;20108;-61
2022/11/19 11:03:01;;;;;;;2.75;1.13;;;;;;;;;;5009924;28;20132;-62
2022/11/19 11:05:29;;;;;;;3.15;1.23;;;;;;;;;;5002423;28;20038;-57
2022/11/19 11:07:56;;;;;;;4.93;1.70;;;;;;;;;;5011158;28;20054;-61
2022/11/19 11:10:28;;;;;;;3.25;1.60;;;;;;;;;;5010002;28;20095;-60
2022/11/19 11:15:50;;;;;;;3.45;1.10;;;;;;;;;;5007872;28;20051;-57
2022/11/19 11:18:17;;;;;;;2.85;1.20;;;;;;;;;;4997163;28;20101;-58
2022/11/19 11:20:46;;;;;;;3.30;1.13;;;;;;;;;;5007606;28;21024;-60
2022/11/19 11:23:20;;;;;;;2.53;1.27;;;;;;;;;;5009274;28;20453;-59
2022/11/19 11:25:52;;;;;;;3.58;0.98;;;;;;;;;;5000491;28;20050;-60
2022/11/19 11:28:19;;;;;;;4.22;1.33;;;;;;;;;;5006057;28;20097;-63
2022/11/19 11:30:57;;;;;;;4.38;1.98;;;;;;;;;;5000121;28;20494;-57
2022/11/19 11:33:26;;;;;;;3.10;1.23;;;;;;;;;;5009833;28;20053;-59
2022/11/19 11:35:55;;;;;;;4.07;1.60;;;;;;;;;;5009592;28;20045;-59
2022/11/19 11:38:22;;;;;;;3.08;1.17;;;;;;;;;;5008989;28;20079;-59
2022/11/19 11:41:06;;;;;;;4.22;1.02;;;;;;;;;;5009754;28;20038;-58
2022/11/19 11:43:34;;;;;;;2.60;0.88;;;;;;;;;;5010052;28;20401;-60
2022/11/19 11:46:02;;;;;;;3.58;1.48;;;;;;;;;;5011554;28;20042;-59
2022/11/19 11:48:33;;;;;;;11.90;1.35;;;;;;;;;;5009544;28;20046;-63
2022/11/19 11:51:00;;;;;;;2.50;1.30;;;;;;;;;;5010240;28;20029;-60
2022/11/19 11:53:31;;;;;;;5.25;2.08;;;;;;;;;;5009868;28;20111;-61
2022/11/19 11:55:59;;;;;;;1.95;0.90;;;;;;;;;;5008247;28;20658;-61
2022/11/19 11:58:28;;;;;;;3.08;1.15;;;;;;;;;;4995254;28;20041;-61
2022/11/19 12:00:55;;;;;;;2.53;1.15;;;;;;;;;;5011079;28;20064;-61
2022/11/19 12:03:22;;;;;;;3.28;1.33;;;;;;;;;;4995868;28;20790;-60
2022/11/19 12:05:58;;;;;;;4.15;1.65;;;;;;;;;;5015726;28;20124;-60
2022/11/19 12:08:42;;;;;;;2.92;1.08;;;;;;;;;;5011801;28;20053;-60
2022/11/19 12:11:14;;;;;;;1.63;0.90;;;;;;;;;;4997685;28;20046;-62
2022/11/19 12:13:56;;;;;;;1.98;0.80;;;;;;;;;;5010232;28;20550;-62
2022/11/19 12:16:37;;;;;;;2.17;0.98;;;;;;;;;;5008944;28;20049;-61
2022/11/19 12:19:04;;;;;;;2.78;1.45;;;;;;;;;;5016057;28;20212;-62
2022/11/19 12:21:47;;;;;;;3.20;1.40;;;;;;;;;;5008724;28;20042;-59
2022/11/19 12:24:32;;;;;;;5.97;1.17;;;;;;;;;;5011552;28;20514;-62
2022/11/19 12:27:18;;;;;;;2.17;0.85;;;;;;;;;;5010198;28;20433;-63
2022/11/19 12:29:57;;;;;;;3.67;1.45;;;;;;;;;;5010710;28;20127;-61
2022/11/19 12:32:42;;;;;;;3.35;1.23;;;;;;;;;;5013132;28;20130;-63
2022/11/19 12:35:27;;;;;;;4.70;1.40;;;;;;;;;;5009332;28;20042;-58
2022/11/19 12:38:17;;;;;;;2.88;1.17;;;;;;;;;;5008410;28;20040;-63
2022/11/19 12:40:58;;;;;;;3.80;1.45;;;;;;;;;;5008095;28;20060;-61
2022/11/19 12:43:51;;;;;;;2.60;1.10;;;;;;;;;;5023236;28;20140;-61
2022/11/19 12:46:56;;;;;;;2.63;1.13;;;;;;;;;;5011561;28;20186;-63
2022/11/19 12:49:43;;;;;;;2.17;1.05;;;;;;;;;;4965206;28;20038;-60
2022/11/19 12:52:10;;;;;;;1.60;0.80;;;;;;;;;;4971304;28;20902;-63
2022/11/19 12:54:45;;;;;;;2.17;0.85;;;;;;;;;;4991206;28;21603;-61
2022/11/19 12:57:20;;;;;;;2.40;0.90;;;;;;;;;;5009342;28;20140;-61
2022/11/19 12:59:47;;;;;;;4.97;1.25;;;;;;;;;;5007577;28;20041;-62
2022/11/19 13:02:33;;;;;;;2.38;1.02;;;;;;;;;;5009679;28;20133;-61
2022/11/19 13:05:14;;;;;;;15.60;1.60;;;;;;;;;;4986471;28;20422;-63
2022/11/19 13:07:44;;;;;;;2.80;1.23;;;;;;;;;;5009728;28;20104;-62
2022/11/19 13:10:30;;;;;;;5.22;1.80;;;;;;;;;;5010694;28;20037;-58
2022/11/19 13:12:58;;;;;;;3.55;1.30;;;;;;;;;;5011193;28;20612;-61
2022/11/19 13:15:24;;;;;;;4.97;1.23;;;;;;;;;;5008709;28;20038;-60
2022/11/19 13:17:54;;;;;;;1.75;0.85;;;;;;;;;;5008732;28;20221;-60
2022/11/19 13:20:40;;;;;;;7.55;1.48;;;;;;;;;;5009032;28;20402;-59
2022/11/19 13:23:06;;;;;;;4.30;1.08;;;;;;;;;;4997403;28;20041;-62
2022/11/19 13:25:39;;;;;;;4.05;1.27;;;;;;;;;;5009129;28;20038;-60
2022/11/19 13:28:13;;;;;;;3.08;1.00;;;;;;;;;;5008116;28;20505;-61
2022/11/19 13:30:39;;;;;;;;;;;;;;;;;;5009924;28;20092;-62
2022/11/19 13:33:24;;;;;;;2.75;1.30;;;;;;;;;;5008593;28;19920;-61
2022/11/19 13:35:54;;;;;;;2.75;1.05;;;;;;;;;;5008062;28;20118;-61
2022/11/19 13:38:20;;;;;;;3.28;1.05;;;;;;;;;;5006102;28;20418;-61
2022/11/19 13:40:50;;;;;;;12.02;1.70;;;;;;;;;;5007402;28;20041;-62
2022/11/19 13:46:07;;;;;;;3.95;1.50;;;;;;;;;;5006468;28;20127;-59
2022/11/19 13:48:36;;;;;;;3.13;1.30;;;;;;;;;;5006508;28;20168;-61
2022/11/19 13:51:08;;;;;;;13.75;1.75;;;;;;;;;;5008392;28;20548;-61
2022/11/19 13:53:35;;;;;;;4.05;1.00;;;;;;;;;;5008239;28;20864;-62
2022/11/19 13:56:02;;;;;;;3.33;1.45;;;;;;;;;;5012059;28;20041;-59
2022/11/19 13:58:38;;;;;;;3.22;1.20;;;;;;;;;;5006503;28;20487;-62
2022/11/19 14:01:10;;;;;;;3.65;1.27;;;;;;;;;;5006778;28;20060;-70
2022/11/19 14:03:56;;;;;;;4.03;0.95;;;;;;;;;;5008911;28;20055;-64
2022/11/19 14:06:35;;;;;;;1.98;0.85;;;;;;;;;;5009339;28;20045;-61
2022/11/19 14:09:17;;;;;;;7.55;2.22;;;;;;;;;;5010531;28;20069;-63
2022/11/19 14:12:01;;;;;;;3.55;1.20;;;;;;;;;;5004339;28;20492;-59
2022/11/19 14:26:40;;;;;;;5.85;1.67;;;;;;;;;;5002492;28;20099;-61
2022/11/19 14:29:27;;;;;;;3.58;1.40;;;;;;;;;;4999260;28;20054;-61
2022/11/19 14:32:02;;;;;;;4.95;1.30;;;;;;;;;;5011190;28;20072;-58
2022/11/19 14:34:30;;;;;;;1.45;0.73;;;;;;;;;;5012992;28;20044;-62
2022/11/19 14:36:58;;;;;;;9.27;1.67;;;;;;;;;;5013860;28;20520;-61
2022/11/19 14:39:29;;;;;;;4.40;1.90;;;;;;;;;;5024453;28;20978;-61
2022/11/19 14:42:16;;;;;;;2.72;1.30;;;;;;;;;;5013353;28;20037;-60
2022/11/19 14:44:43;;;;;;;11.63;1.50;;;;;;;;;;5011678;28;20525;-60
2022/11/19 14:47:22;;;;;;;4.35;1.30;;;;;;;;;;5010918;28;20082;-60
2022/11/19 14:49:53;;;;;;;4.45;1.30;;;;;;;;;;5010986;28;20056;-59
2022/11/19 14:52:24;;;;;;;6.97;1.85;;;;;;;;;;5007442;28;20033;-61
2022/11/19 14:54:55;;;;;;;4.40;1.25;;;;;;;;;;5014320;28;20033;-59
2022/11/19 14:57:31;;;;;;;3.17;1.38;;;;;;;;;;5010367;28;20446;-57
2022/11/19 15:00:06;;;;;;;5.35;1.35;;;;;;;;;;5003832;28;20626;-62
2022/11/19 15:02:44;;;;;;;14.20;1.52;;;;;;;;;;5014157;28;20041;-63
2022/11/19 15:05:17;;;;;;;3.40;1.17;;;;;;;;;;5002574;28;20074;-62
2022/11/19 15:07:50;;;;;;;3.15;1.30;;;;;;;;;;4997228;28;20133;-60
2022/11/19 15:10:17;;;;;;;;;;;;;;;;;;5005013;28;20046;-59
2022/11/19 15:12:43;;;;;;;2.63;1.15;;;;;;;;;;5007471;28;20392;-58
2022/11/19 15:15:19;;;;;;;3.45;1.10;;;;;;;;;;5013206;28;20601;-63
2022/11/19 15:18:00;;;;;;;3.45;1.33;;;;;;;;;;4998190;28;20100;-59
2022/11/19 15:20:33;;;;;;;4.55;1.67;;;;;;;;;;4997961;28;20167;-58
2022/11/19 15:23:11;;;;;;;6.10;2.20;;;;;;;;;;5012144;28;20045;-61
2022/11/19 15:25:44;;;;;;;8.27;2.00;;;;;;;;;;5010198;28;20052;-62
2022/11/19 15:28:20;;;;;;;3.30;1.30;;;;;;;;;;5011156;28;20061;-60
2022/11/19 15:31:05;;;;;;;6.25;1.75;;;;;;;;;;5009683;28;20037;-57